Terminal Aerodrome Forecast
Issued by NWS Billings, MT

Home | Current Version | Previous Version | Text Only | Print | Product List | Glossary Off
Versions: 1 2 3 4 5 6 7 8 9 10 11 12 13 14 15 16 17 18 19 20 21 22 23 24 25 26 27 28 29 30 31 32

379
FTUS45 KBYZ 231738
TAFMLS
TAF
KMLS 231738Z 2318/2418 26015G24KT P6SM VCSH SCT070 BKN120
     FM232100 26015G24KT P6SM VCTS SCT070CB BKN100
     FM240300 30010KT P6SM VCSH SCT070 BKN100
     FM240600 27006KT P6SM FEW070 BKN150
     FM241600 30009KT P6SM FEW090 SCT150=

USA.gov is the U.S. government's official web portal to all federal, state and local government web resources and services.